Aviation Digital Data Service (ADDS)

Output produced by METARs form (0231 UTC 21 November 2017)
found at http://www.aviationweather.gov/adds/metars/
 
METAR text: KFAM 210156Z AUTO 18014KT 10SM CLR 07/M02 A2994 RMK AO2 SLP142 T00721022
Conditions at: KFAM (FARMINGTON , MO, US) observed 0156 UTC 21 November 2017
Temperature: 7.2°C (45°F)
Dewpoint: -2.2°C (28°F) [RH = 51%]
Pressure (altimeter): 29.94 inches Hg (1014.0 mb)
[Sea-level pressure: 1014.2 mb]
Winds: from the S (180 degrees) at 16 MPH (14 knots; 7.3 m/s)
Visibility: 10 or more miles (16+ km)
Ceiling: at least 12,000 feet AGL
Clouds: sky clear below 12,000 feet AGL
Weather: automated observation with no human augmentation;
there may or may not be significant weather present at this time